Time;durP1;ratioP1;P1;durP2;ratioP2;P2;SDS_P1;SDS_P2;PMS_P1;PMS_P2;Temp;Humidity;BMP_temperature;BMP_pressure;BME280_temperature;BME280_humidity;BME280_pressure;Samples;Min_cycle;Max_cycle;Signal;HPM_P1;HPM_P2
2022/12/10 00:01:29;;;;;;;26.27;18.38;;;;;;;2.71;68.26;99614.53;4174677;28;20071;-79
2022/12/10 00:03:32;;;;;;;27.40;17.55;;;;;;;2.71;68.43;99615.41;4172070;28;20075;-79
2022/12/10 00:05:35;;;;;;;28.25;19.13;;;;;;;2.79;68.54;99619.09;4167924;28;20060;-78
2022/12/10 00:07:38;;;;;;;24.75;16.95;;;;;;;2.80;68.04;99630.22;4168668;28;20041;-78
2022/12/10 00:09:41;;;;;;;29.23;17.63;;;;;;;2.77;68.37;99625.88;4153155;28;20559;-79
2022/12/10 00:11:44;;;;;;;25.52;17.42;;;;;;;2.81;67.68;99625.97;4167915;28;20446;-78
2022/12/10 00:13:48;;;;;;;24.85;17.42;;;;;;;2.78;68.24;99621.59;4173756;28;20048;-78
2022/12/10 00:15:51;;;;;;;26.08;18.15;;;;;;;2.91;67.82;99626.31;4171604;28;20053;-78
2022/12/10 00:17:55;;;;;;;26.63;17.80;;;;;;;2.90;68.15;99623.69;4168364;28;20046;-77
2022/12/10 00:19:58;;;;;;;26.58;18.48;;;;;;;2.90;67.76;99621.13;4169964;28;20042;-79
2022/12/10 00:22:01;;;;;;;25.02;17.20;;;;;;;2.77;67.76;99625.88;4167874;28;20061;-78
2022/12/10 00:24:05;;;;;;;27.40;15.90;;;;;;;2.81;67.77;99619.13;4168557;28;20045;-78
2022/12/10 00:26:10;;;;;;;27.95;17.45;;;;;;;2.76;68.05;99615.53;4167757;28;20033;-79
2022/12/10 00:28:13;;;;;;;29.50;19.13;;;;;;;2.74;68.36;99619.75;4168383;28;20078;-77
2022/12/10 00:30:16;;;;;;;24.80;17.27;;;;;;;2.74;68.23;99620.63;4168637;28;20045;-78
2022/12/10 00:32:19;;;;;;;29.48;18.50;;;;;;;2.72;68.76;99621.41;4167379;28;20061;-78
2022/12/10 00:34:24;;;;;;;27.15;17.98;;;;;;;2.73;68.39;99623.13;4170781;28;20056;-78
2022/12/10 00:36:29;;;;;;;28.52;20.08;;;;;;;2.70;68.93;99618.81;4173801;28;20038;-78
2022/12/10 00:38:34;;;;;;;31.23;18.95;;;;;;;2.76;69.39;99619.00;4168866;28;20060;-78
2022/12/10 00:40:37;;;;;;;27.35;18.00;;;;;;;2.81;69.03;99615.72;4168437;28;20092;-80
2022/12/10 00:42:39;;;;;;;29.02;19.55;;;;;;;2.83;69.09;99619.19;4167764;28;20041;-79
2022/12/10 00:44:42;;;;;;;27.23;18.55;;;;;;;2.86;68.37;99616.72;4185167;28;20044;-78
2022/12/10 00:46:45;;;;;;;30.25;18.50;;;;;;;2.85;68.36;99622.66;4151969;28;20045;-79
2022/12/10 00:48:48;;;;;;;29.02;18.98;;;;;;;2.71;68.77;99620.53;4171551;28;20514;-78
2022/12/10 00:51:01;;;;;;;29.88;20.15;;;;;;;2.77;68.69;99620.75;4166609;28;20406;-78
2022/12/10 00:53:04;;;;;;;30.15;19.17;;;;;;;2.76;68.67;99630.94;4168249;28;20046;-77
2022/12/10 00:55:07;;;;;;;28.85;18.60;;;;;;;2.64;69.12;99626.28;4171744;28;20459;-78
2022/12/10 00:57:10;;;;;;;30.83;19.40;;;;;;;2.61;69.01;99624.50;4172592;28;20041;-78
2022/12/10 00:59:13;;;;;;;32.80;22.05;;;;;;;2.59;69.44;99625.28;4167508;28;20665;-78
2022/12/10 01:01:18;;;;;;;29.98;19.27;;;;;;;2.68;69.32;99629.84;4171427;28;20068;-79
2022/12/10 01:03:21;;;;;;;29.65;20.13;;;;;;;2.62;69.86;99627.94;4167206;28;20115;-78
2022/12/10 01:05:25;;;;;;;30.60;20.10;;;;;;;2.66;69.93;99626.31;4168348;28;20053;-78
2022/12/10 01:07:29;;;;;;;30.38;20.20;;;;;;;2.66;69.43;99631.47;4168722;28;20042;-78
2022/12/10 01:09:32;;;;;;;32.17;20.55;;;;;;;2.61;69.73;99634.78;4166848;28;20068;-78
2022/12/10 01:11:37;;;;;;;33.25;21.05;;;;;;;2.54;69.78;99632.81;4172329;28;20041;-78
2022/12/10 01:13:41;;;;;;;29.23;19.65;;;;;;;2.49;69.50;99638.63;4174810;28;20041;-79
2022/12/10 01:15:44;;;;;;;30.40;19.70;;;;;;;2.51;70.06;99637.84;4175872;28;20048;-79
2022/12/10 01:17:47;;;;;;;31.52;19.20;;;;;;;2.60;70.28;99637.28;4182315;28;20045;-78
2022/12/10 01:19:50;;;;;;;27.40;18.23;;;;;;;2.62;70.46;99638.19;4160239;28;20547;-78
2022/12/10 01:21:53;;;;;;;29.20;18.90;;;;;;;2.51;70.67;99639.53;4181106;28;20064;-79
2022/12/10 01:23:59;;;;;;;33.90;20.98;;;;;;;2.63;70.13;99645.09;4174261;28;20080;-79
2022/12/10 01:26:03;;;;;;;28.35;20.15;;;;;;;2.64;70.15;99636.53;4173662;28;20045;-79
2022/12/10 01:28:06;;;;;;;30.10;19.90;;;;;;;2.63;69.57;99642.53;4175164;28;20042;-78
2022/12/10 01:30:10;;;;;;;31.85;20.80;;;;;;;2.65;70.47;99652.84;4174438;28;20051;-79
2022/12/10 01:32:13;;;;;;;30.77;20.48;;;;;;;2.63;69.94;99655.34;4154554;28;20460;-78
2022/12/10 01:34:16;;;;;;;31.02;21.30;;;;;;;2.71;70.09;99656.44;4169848;28;20107;-79
2022/12/10 01:36:21;;;;;;;30.27;20.42;;;;;;;2.76;69.74;99654.03;4169127;28;20473;-78
2022/12/10 01:38:24;;;;;;;31.08;19.52;;;;;;;2.64;69.53;99663.91;4176197;28;20041;-78
2022/12/10 01:40:30;;;;;;;33.70;21.77;;;;;;;2.70;69.55;99659.88;4167263;28;20033;-78
2022/12/10 01:42:33;;;;;;;32.03;20.23;;;;;;;2.65;69.16;99665.66;4151280;28;20108;-79
2022/12/10 01:45:00;;;;;;;32.00;21.38;;;;;;;2.59;69.96;99656.94;4172493;28;20055;-79
2022/12/10 01:47:04;;;;;;;33.08;20.15;;;;;;;2.54;69.57;99653.34;4169586;28;20041;-79
2022/12/10 01:49:09;;;;;;;31.90;20.92;;;;;;;2.57;69.84;99658.59;4150978;28;20060;-78
2022/12/10 01:51:14;;;;;;;32.25;21.85;;;;;;;2.50;69.84;99663.44;4168505;28;20038;-79
2022/12/10 01:53:17;;;;;;;33.08;20.88;;;;;;;2.47;70.11;99661.66;4167083;28;20094;-79
2022/12/10 01:55:44;;;;;;;31.00;21.17;;;;;;;2.43;70.04;99670.06;4168224;28;20124;-79
2022/12/10 01:57:48;;;;;;;31.17;19.90;;;;;;;2.39;70.36;99673.34;4159787;28;20050;-79
2022/12/10 01:59:54;;;;;;;33.65;20.73;;;;;;;2.40;70.58;99670.81;4170027;28;20068;-79
2022/12/10 02:02:06;;;;;;;31.73;21.10;;;;;;;2.39;70.57;99674.19;4167578;28;20045;-79
2022/12/10 02:04:21;;;;;;;33.05;22.60;;;;;;;2.48;70.04;99670.22;4171206;28;20065;-79
2022/12/10 02:06:42;;;;;;;36.77;22.43;;;;;;;2.38;70.31;99681.84;4170129;28;20115;-78
2022/12/10 02:08:57;;;;;;;30.10;19.10;;;;;;;2.48;70.50;99670.22;4168255;28;20038;-79
2022/12/10 02:11:13;;;;;;;35.88;21.98;;;;;;;2.40;70.54;99675.97;4167342;28;20498;-78
2022/12/10 02:13:23;;;;;;;31.42;21.33;;;;;;;2.40;70.73;99675.97;4165004;28;20048;-79
2022/12/10 02:15:31;;;;;;;32.55;21.15;;;;;;;2.41;70.08;99674.25;4167938;28;20647;-79
2022/12/10 02:17:39;;;;;;;38.53;23.85;;;;;;;2.41;70.20;99677.72;4166660;28;20037;-79
2022/12/10 02:20:00;;;;;;;34.92;21.67;;;;;;;2.38;70.36;99680.19;4172469;28;20037;-78
2022/12/10 02:22:05;;;;;;;33.20;21.35;;;;;;;2.40;70.92;99685.34;4150053;28;20045;-78
2022/12/10 02:24:15;;;;;;;39.92;22.02;;;;;;;2.38;70.83;99677.63;4169871;28;20390;-78
2022/12/10 02:26:25;;;;;;;36.92;22.88;;;;;;;2.37;70.64;99678.41;4154804;28;20113;-79
2022/12/10 02:28:37;;;;;;;32.67;21.17;;;;;;;2.44;70.24;99674.38;4186075;28;20061;-79
2022/12/10 02:30:46;;;;;;;37.25;23.05;;;;;;;2.38;70.71;99667.34;4172944;28;20068;-79
2022/12/10 02:32:51;;;;;;;37.17;22.67;;;;;;;2.32;71.12;99667.13;4175026;28;20049;-77
2022/12/10 02:34:58;;;;;;;32.28;21.23;;;;;;;2.39;70.66;99663.94;4170666;28;20072;-79
2022/12/10 02:37:14;;;;;;;35.22;21.52;;;;;;;2.38;70.55;99669.03;4150934;28;20061;-79
2022/12/10 02:39:22;;;;;;;32.30;20.45;;;;;;;2.51;70.82;99670.31;4150607;28;20053;-79
2022/12/10 02:41:33;;;;;;;33.97;21.92;;;;;;;2.49;70.51;99669.41;4152269;28;20153;-78
2022/12/10 02:43:37;;;;;;;35.42;22.30;;;;;;;2.42;69.76;99669.22;4182073;28;20407;-79
2022/12/10 02:45:44;;;;;;;35.05;21.55;;;;;;;2.43;70.24;99670.94;4169350;28;20045;-79
2022/12/10 02:47:52;;;;;;;36.03;22.35;;;;;;;2.35;70.43;99667.25;4168320;28;20463;-79
2022/12/10 02:49:57;;;;;;;33.55;21.35;;;;;;;2.43;70.24;99665.81;4151584;28;20050;-79
2022/12/10 02:52:08;;;;;;;34.03;21.00;;;;;;;2.36;69.83;99668.97;4169065;28;20041;-78
2022/12/10 02:54:48;;;;;;;36.95;21.70;;;;;;;2.36;70.04;99668.09;4152882;28;20073;-78
2022/12/10 02:57:01;;;;;;;32.45;20.92;;;;;;;2.26;70.70;99662.69;4120455;28;20483;-79
2022/12/10 02:59:17;;;;;;;34.78;20.98;;;;;;;2.27;70.71;99663.53;4121597;28;20046;-79
2022/12/10 03:01:31;;;;;;;30.55;20.48;;;;;;;2.16;71.00;99665.75;4147874;28;20057;-79
2022/12/10 03:03:44;;;;;;;34.00;21.67;;;;;;;2.19;70.47;99660.72;4155266;28;20134;-78
2022/12/10 03:05:58;;;;;;;34.47;21.35;;;;;;;2.25;70.50;99663.47;4170593;28;20064;-79
2022/12/10 03:08:09;;;;;;;35.95;21.55;;;;;;;2.17;70.78;99672.59;4175101;28;20042;-79
2022/12/10 03:10:18;;;;;;;35.63;20.98;;;;;;;2.24;70.16;99664.28;4174362;28;20041;-78
2022/12/10 03:12:29;;;;;;;35.80;21.42;;;;;;;2.14;70.90;99664.78;4173815;28;20128;-79
2022/12/10 03:14:34;;;;;;;37.63;22.48;;;;;;;2.16;70.93;99664.84;4170078;28;20068;-78
2022/12/10 03:16:43;;;;;;;34.00;22.55;;;;;;;2.19;71.21;99664.94;4173423;28;20050;-79
2022/12/10 03:18:50;;;;;;;38.47;22.50;;;;;;;2.25;70.70;99662.63;4169426;28;20037;-78
2022/12/10 03:20:57;;;;;;;33.53;22.85;;;;;;;2.19;71.13;99664.94;4172425;28;20056;-77
2022/12/10 03:23:02;;;;;;;38.10;22.80;;;;;;;2.23;71.16;99662.56;4178742;28;20045;-79
2022/12/10 03:25:07;;;;;;;36.67;22.88;;;;;;;2.29;70.48;99661.88;4152089;28;20046;-79
2022/12/10 03:27:12;;;;;;;;;;;;;;;2.13;70.75;99649.34;4172896;28;20075;-79
2022/12/10 03:29:20;;;;;;;34.50;21.83;;;;;;;2.06;70.44;99659.41;4174593;28;20290;-79
2022/12/10 03:31:24;;;;;;;32.80;21.27;;;;;;;2.13;71.32;99659.63;4156248;28;20520;-79
2022/12/10 03:33:29;;;;;;;36.73;22.27;;;;;;;2.11;70.97;99664.69;4158516;28;20114;-80
2022/12/10 03:35:34;;;;;;;33.10;22.38;;;;;;;2.17;70.85;99661.47;4171123;28;20045;-78
2022/12/10 03:37:37;;;;;;;33.15;22.23;;;;;;;2.17;70.18;99659.78;4170538;28;20041;-77
2022/12/10 03:39:42;;;;;;;32.42;20.88;;;;;;;2.12;70.63;99661.31;4153196;28;20475;-78
2022/12/10 03:41:45;;;;;;;39.53;22.88;;;;;;;2.18;70.24;99665.78;4156496;28;20048;-79
2022/12/10 03:43:56;;;;;;;34.13;22.02;;;;;;;2.12;70.15;99660.44;4173011;28;20032;-77
2022/12/10 03:45:59;;;;;;;33.53;20.88;;;;;;;2.12;70.54;99663.00;4169724;28;20045;-79
2022/12/10 03:48:01;;;;;;;37.47;22.42;;;;;;;2.01;70.43;99665.19;4153872;28;20149;-77
2022/12/10 03:50:07;;;;;;;35.67;22.52;;;;;;;1.99;70.24;99656.56;4168100;28;20471;-78
2022/12/10 03:52:11;;;;;;;35.88;21.90;;;;;;;1.97;70.47;99664.22;4152385;28;20056;-77
2022/12/10 03:54:13;;;;;;;38.60;23.10;;;;;;;1.94;70.44;99668.34;4172265;28;20041;-78
2022/12/10 03:56:16;;;;;;;35.35;22.05;;;;;;;1.94;70.27;99666.63;4168923;28;20115;-78
2022/12/10 03:58:19;;;;;;;37.33;22.73;;;;;;;1.88;70.82;99666.44;4168384;28;20046;-76
2022/12/10 04:00:22;;;;;;;32.53;20.73;;;;;;;1.92;70.63;99670.84;4173951;28;20303;-78
2022/12/10 04:02:25;;;;;;;33.15;20.73;;;;;;;1.87;70.66;99670.69;4171460;28;20042;-78
2022/12/10 04:04:28;;;;;;;32.17;20.85;;;;;;;1.86;70.32;99670.63;4175514;28;20037;-78
2022/12/10 04:06:32;;;;;;;35.72;22.50;;;;;;;1.89;70.50;99673.31;4169228;28;20052;-78
2022/12/10 04:08:35;;;;;;;35.95;22.10;;;;;;;1.94;70.24;99673.47;4170435;28;20049;-78
2022/12/10 04:10:37;;;;;;;34.47;21.60;;;;;;;1.84;70.69;99675.72;4170396;28;20036;-78
2022/12/10 04:12:40;;;;;;;36.05;22.73;;;;;;;1.84;70.82;99685.06;4172824;28;20068;-77
2022/12/10 04:17:03;;;;;;;33.65;20.98;;;;;;;1.96;70.28;99672.72;4168213;28;20045;-77
2022/12/10 04:19:08;;;;;;;36.45;23.27;;;;;;;1.95;70.07;99678.66;4165677;28;20048;-78
2022/12/10 04:28:37;;;;;;;38.92;23.60;;;;;;;1.87;71.00;99678.38;4124156;28;20058;-77
2022/12/10 04:30:40;;;;;;;35.08;22.92;;;;;;;1.88;71.24;99680.13;4119356;28;20043;-76
2022/12/10 04:32:43;;;;;;;35.20;23.50;;;;;;;1.83;71.20;99684.22;4102556;29;20134;-78
2022/12/10 04:34:46;;;;;;;36.95;22.83;;;;;;;1.90;70.87;99687.88;4163205;28;20049;-78
2022/12/10 04:36:49;;;;;;;38.72;23.80;;;;;;;1.93;70.82;99685.44;4167707;28;20049;-77
2022/12/10 04:38:54;;;;;;;38.63;23.50;;;;;;;1.79;71.42;99684.03;4169176;28;20068;-78
2022/12/10 04:40:59;;;;;;;37.97;22.25;;;;;;;1.83;71.14;99691.91;4171094;28;20073;-79
2022/12/10 04:43:02;;;;;;;36.90;23.42;;;;;;;1.83;70.84;99691.03;4170231;28;20029;-78
2022/12/10 04:45:06;;;;;;;35.75;22.42;;;;;;;1.85;70.34;99694.50;4175653;28;20048;-79
2022/12/10 04:47:10;;;;;;;39.00;23.27;;;;;;;1.87;71.06;99696.31;4169665;28;20075;-78
2022/12/10 04:49:14;;;;;;;39.08;22.77;;;;;;;1.84;70.96;99696.22;4169255;28;20132;-79
2022/12/10 04:51:17;;;;;;;38.90;23.10;;;;;;;1.82;70.95;99695.25;4169770;28;20045;-77
2022/12/10 04:53:20;;;;;;;34.17;22.13;;;;;;;1.74;71.39;99701.81;4170888;28;20045;-78
2022/12/10 04:55:24;;;;;;;35.60;21.75;;;;;;;1.87;71.18;99698.88;4169693;28;20037;-78
2022/12/10 04:57:27;;;;;;;35.70;22.48;;;;;;;1.95;70.66;99700.84;4170880;28;20049;-78
2022/12/10 04:59:30;;;;;;;37.30;22.70;;;;;;;1.82;70.88;99705.50;4174000;28;20107;-78
2022/12/10 05:01:34;;;;;;;35.90;21.80;;;;;;;1.84;71.36;99701.34;4174523;28;20121;-79
2022/12/10 05:03:37;;;;;;;34.17;21.65;;;;;;;2.07;70.27;99699.63;4172595;28;20068;-78
2022/12/10 05:05:40;;;;;;;34.65;22.00;;;;;;;1.92;70.23;99707.59;4166725;28;20081;-78
2022/12/10 05:07:43;;;;;;;35.65;21.33;;;;;;;1.90;70.76;99704.13;4153521;28;20053;-78
2022/12/10 05:09:47;;;;;;;32.30;21.63;;;;;;;1.73;70.61;99700.91;4170828;28;20065;-77
2022/12/10 05:11:52;;;;;;;34.72;21.50;;;;;;;1.73;70.68;99706.03;4176147;28;20041;-78
2022/12/10 05:13:56;;;;;;;35.75;22.73;;;;;;;1.86;70.80;99712.50;4166529;28;20112;-78
2022/12/10 05:16:02;;;;;;;35.70;21.92;;;;;;;1.84;70.76;99715.81;4169553;28;20435;-78
2022/12/10 05:18:07;;;;;;;33.75;21.63;;;;;;;1.85;70.23;99720.13;4150285;28;20045;-78
2022/12/10 05:20:10;;;;;;;33.70;20.67;;;;;;;1.82;70.17;99722.59;4167322;28;20510;-77
2022/12/10 05:24:35;;;;;;;33.00;20.55;;;;;;;1.83;70.72;99724.34;4172416;28;20041;-77
2022/12/10 05:26:38;;;;;;;33.58;22.10;;;;;;;1.82;70.13;99726.00;4167049;28;20495;-78
2022/12/10 05:28:44;;;;;;;32.53;21.17;;;;;;;1.72;70.15;99729.94;4172481;28;20045;-78
2022/12/10 05:30:47;;;;;;;33.55;21.38;;;;;;;1.77;69.83;99731.78;4156577;28;20510;-80
2022/12/10 05:32:50;;;;;;;33.80;20.50;;;;;;;1.79;70.41;99733.59;4168305;28;20080;-77
2022/12/10 05:34:53;;;;;;;35.95;22.55;;;;;;;1.70;70.27;99746.94;4168799;28;20124;-79
2022/12/10 05:36:56;;;;;;;32.13;19.35;;;;;;;1.69;70.04;99734.94;4169639;28;20069;-78
2022/12/10 05:39:00;;;;;;;31.98;19.30;;;;;;;1.68;70.04;99737.44;4166962;28;20052;-79
2022/12/10 05:41:03;;;;;;;34.63;22.45;;;;;;;1.70;69.95;99736.69;4167589;28;20403;-79
2022/12/10 05:43:06;;;;;;;33.15;21.52;;;;;;;1.81;69.93;99743.91;4165615;28;20045;-79
2022/12/10 05:45:11;;;;;;;31.55;20.02;;;;;;;1.76;70.51;99740.31;4166430;28;20045;-80
2022/12/10 05:47:14;;;;;;;35.78;21.63;;;;;;;1.64;70.65;99745.84;4169106;28;20037;-79
2022/12/10 05:49:17;;;;;;;33.08;20.58;;;;;;;1.69;70.70;99746.88;4166829;28;20092;-79
2022/12/10 05:51:22;;;;;;;31.90;19.77;;;;;;;1.76;70.07;99753.13;4167732;28;20497;-79
2022/12/10 05:53:25;;;;;;;31.50;20.48;;;;;;;1.75;70.06;99749.66;4168092;28;20088;-79
2022/12/10 05:55:28;;;;;;;37.90;22.73;;;;;;;1.77;69.77;99748.06;4165691;28;20048;-79
2022/12/10 05:57:31;;;;;;;30.85;19.67;;;;;;;1.63;69.86;99755.19;4166379;28;20515;-79
2022/12/10 05:59:34;;;;;;;28.35;18.75;;;;;;;1.75;69.87;99749.66;4172008;28;20610;-79
2022/12/10 06:01:39;;;;;;;32.47;21.40;;;;;;;1.73;69.62;99751.31;4171196;28;20463;-80
2022/12/10 06:03:42;;;;;;;33.25;21.27;;;;;;;1.69;70.26;99744.31;4175649;28;20034;-79
2022/12/10 06:05:45;;;;;;;33.65;20.48;;;;;;;1.85;70.06;99759.44;4169501;28;20041;-79
2022/12/10 06:07:48;;;;;;;28.98;18.83;;;;;;;1.84;69.43;99755.16;4166242;28;20570;-79
2022/12/10 06:09:52;;;;;;;32.83;20.45;;;;;;;1.73;69.46;99754.72;4172076;28;20060;-79
2022/12/10 06:11:55;;;;;;;30.02;19.05;;;;;;;1.78;69.14;99761.72;4167869;28;20107;-79
2022/12/10 06:13:58;;;;;;;27.40;17.73;;;;;;;1.77;68.72;99768.56;4166858;28;20095;-79
2022/12/10 06:16:05;;;;;;;28.85;18.63;;;;;;;1.76;68.72;99769.34;4184500;28;20565;-80
2022/12/10 06:18:09;;;;;;;28.95;19.45;;;;;;;1.58;69.10;99772.09;4171916;28;20037;-78
2022/12/10 06:20:13;;;;;;;29.33;20.58;;;;;;;1.50;69.80;99776.03;4168012;28;20479;-76
2022/12/10 06:22:16;;;;;;;35.90;19.30;;;;;;;1.59;69.56;99768.69;4152719;28;20057;-77
2022/12/10 06:24:19;;;;;;;29.73;19.67;;;;;;;1.58;69.63;99769.53;4172771;28;20041;-77
2022/12/10 06:26:25;;;;;;;28.75;18.50;;;;;;;1.59;69.69;99768.69;4172188;28;20069;-78
2022/12/10 06:28:29;;;;;;;29.92;19.42;;;;;;;1.63;69.75;99774.81;4170247;28;20060;-77
2022/12/10 06:30:33;;;;;;;32.70;20.67;;;;;;;1.52;69.97;99774.38;4171586;28;20064;-78
2022/12/10 06:32:36;;;;;;;32.25;21.08;;;;;;;1.61;69.89;99773.88;4168768;28;20412;-78
2022/12/10 06:34:40;;;;;;;31.42;20.38;;;;;;;1.53;69.73;99768.47;4167162;28;20044;-77
2022/12/10 06:36:45;;;;;;;43.40;20.60;;;;;;;1.56;69.83;99773.69;4172982;28;20408;-78
2022/12/10 06:38:49;;;;;;;31.75;19.85;;;;;;;1.65;69.40;99784.31;4169019;28;20053;-78
2022/12/10 06:40:52;;;;;;;29.83;18.98;;;;;;;1.54;70.00;99794.13;4158602;28;20127;-77
2022/12/10 06:42:55;;;;;;;29.13;19.60;;;;;;;1.51;70.28;99795.72;4168897;28;20037;-77
2022/12/10 06:44:58;;;;;;;29.63;18.20;;;;;;;1.81;68.92;99790.03;4169613;28;20042;-77
2022/12/10 06:47:01;;;;;;;28.67;18.23;;;;;;;1.70;69.47;99787.94;4173256;28;20041;-78
2022/12/10 06:49:04;;;;;;;31.55;20.17;;;;;;;1.57;69.94;99788.25;4156159;28;20045;-77
2022/12/10 06:51:09;;;;;;;30.08;19.55;;;;;;;1.62;69.91;99791.91;4176954;28;20475;-78
2022/12/10 06:53:12;;;;;;;32.58;20.67;;;;;;;1.64;69.12;99791.97;4169105;28;20041;-77
2022/12/10 06:55:15;;;;;;;35.88;19.45;;;;;;;1.68;69.31;99789.56;4172588;28;20573;-77
2022/12/10 06:57:18;;;;;;;33.95;20.10;;;;;;;1.49;70.20;99795.66;4169572;28;20096;-78
2022/12/10 06:59:21;;;;;;;30.27;19.27;;;;;;;1.50;70.29;99793.97;4173652;28;20059;-77
2022/12/10 07:01:26;;;;;;;27.27;17.98;;;;;;;1.67;69.55;99799.75;4184384;28;20103;-78
2022/12/10 07:03:29;;;;;;;29.75;19.33;;;;;;;1.63;69.49;99797.88;4167669;28;20144;-77
2022/12/10 07:05:32;;;;;;;33.60;20.42;;;;;;;1.70;68.79;99794.75;4167777;28;20076;-77
2022/12/10 07:07:37;;;;;;;30.48;20.02;;;;;;;1.68;68.75;99797.25;4168448;28;20068;-77
2022/12/10 07:09:40;;;;;;;;;;;;;;;1.59;68.95;99804.56;4167673;28;20458;-77
2022/12/10 07:11:43;;;;;;;30.58;18.58;;;;;;;1.55;69.44;99802.72;4173167;28;19971;-79
2022/12/10 07:13:47;;;;;;;31.40;20.05;;;;;;;1.61;69.52;99808.06;4172879;28;20037;-78
2022/12/10 07:15:50;;;;;;;26.30;17.15;;;;;;;1.68;69.23;99804.94;4171050;28;20037;-77
2022/12/10 07:17:53;;;;;;;29.25;18.67;;;;;;;1.49;69.81;99807.56;4150695;28;20050;-77
2022/12/10 07:19:55;;;;;;;27.55;17.60;;;;;;;1.50;69.75;99814.44;4167896;28;20041;-78
2022/12/10 07:21:58;;;;;;;27.75;18.30;;;;;;;1.50;70.18;99819.56;4150339;28;20084;-77
2022/12/10 07:24:05;;;;;;;29.48;18.90;;;;;;;1.56;69.98;99824.94;4171407;28;20048;-77
2022/12/10 07:26:08;;;;;;;25.98;17.17;;;;;;;1.50;70.05;99827.25;4165106;28;20041;-78
2022/12/10 07:28:11;;;;;;;35.83;17.80;;;;;;;1.54;70.34;99826.56;4165311;28;20060;-77
2022/12/10 07:30:14;;;;;;;25.67;16.90;;;;;;;1.50;70.39;99829.81;4163547;28;20045;-78
2022/12/10 07:32:18;;;;;;;26.60;17.40;;;;;;;1.57;70.23;99826.69;4170673;28;20048;-77
2022/12/10 07:34:20;;;;;;;25.60;16.65;;;;;;;1.73;69.37;99829.03;4170547;28;20092;-77
2022/12/10 07:36:24;;;;;;;26.70;16.88;;;;;;;1.66;69.27;99832.16;4173696;28;20042;-78
2022/12/10 07:38:27;;;;;;;25.77;16.00;;;;;;;1.66;68.94;99841.56;4171474;28;20129;-78
2022/12/10 07:40:31;;;;;;;28.35;16.77;;;;;;;1.73;68.65;99838.44;4166044;28;20045;-78
2022/12/10 07:42:34;;;;;;;26.85;16.08;;;;;;;1.65;68.90;99843.25;4172990;28;20056;-77
2022/12/10 07:44:37;;;;;;;23.30;15.57;;;;;;;1.62;68.86;99844.81;4168942;28;20033;-77
2022/12/10 07:46:40;;;;;;;26.10;14.63;;;;;;;1.55;68.91;99848.81;4170217;28;20148;-79
2022/12/10 07:48:47;;;;;;;24.08;15.57;;;;;;;1.56;68.75;99850.56;4153231;28;20046;-78
2022/12/10 07:50:56;;;;;;;21.30;15.05;;;;;;;1.60;67.90;99857.56;4153476;28;20050;-78
2022/12/10 07:53:00;;;;;;;21.63;14.20;;;;;;;1.58;68.44;99859.19;4172347;28;20407;-78
2022/12/10 07:55:04;;;;;;;22.92;14.20;;;;;;;1.63;67.57;99862.78;4155175;28;20053;-78
2022/12/10 07:57:08;;;;;;;21.60;13.95;;;;;;;1.53;68.48;99866.69;4156632;28;20045;-78
2022/12/10 07:59:11;;;;;;;20.95;14.40;;;;;;;1.56;68.13;99860.78;4170712;28;20511;-78
2022/12/10 08:01:16;;;;;;;22.13;14.00;;;;;;;1.56;67.77;99863.34;4173752;28;20144;-78
2022/12/10 08:03:19;;;;;;;;;;;;;;;1.66;67.34;99868.03;4169388;28;20050;-79
2022/12/10 08:05:23;;;;;;;21.58;14.45;;;;;;;1.58;67.87;99864.31;4173130;28;19951;-78
2022/12/10 08:07:26;;;;;;;20.73;13.70;;;;;;;1.50;67.54;99858.84;4169321;28;20049;-79
2022/12/10 08:09:29;;;;;;;20.42;13.93;;;;;;;1.48;68.06;99872.44;4173584;28;20075;-79
2022/12/10 08:11:33;;;;;;;21.58;14.07;;;;;;;1.45;67.73;99865.50;4169044;28;20045;-79
2022/12/10 08:13:38;;;;;;;21.63;13.93;;;;;;;1.45;68.20;99872.31;4174528;28;20112;-77
2022/12/10 08:15:41;;;;;;;21.85;14.73;;;;;;;1.47;67.78;99870.69;4156284;28;20038;-78
2022/12/10 08:17:44;;;;;;;22.33;14.48;;;;;;;1.45;68.00;99877.44;4170650;28;20087;-78
2022/12/10 08:19:49;;;;;;;20.92;14.57;;;;;;;1.55;67.67;99875.31;4166753;28;20041;-77
2022/12/10 08:21:51;;;;;;;;;;;;;;;1.49;68.11;99880.19;4171971;28;20042;-78
2022/12/10 08:23:55;;;;;;;19.70;13.70;;;;;;;1.39;68.10;99883.19;4173037;28;20295;-76
2022/12/10 08:25:58;;;;;;;25.83;15.63;;;;;;;1.25;68.16;99879.16;4168064;28;20329;-77
2022/12/10 08:28:02;;;;;;;19.60;13.75;;;;;;;1.42;68.26;99883.31;4169753;28;20052;-77
2022/12/10 08:30:08;;;;;;;19.30;13.18;;;;;;;1.54;68.38;99880.38;4169521;28;20049;-77
2022/12/10 08:32:12;;;;;;;19.35;13.07;;;;;;;1.62;67.02;99885.78;4168925;28;20072;-78
2022/12/10 08:34:18;;;;;;;20.48;13.98;;;;;;;1.50;67.67;99887.03;4172329;28;20045;-78
2022/12/10 08:36:22;;;;;;;23.30;14.20;;;;;;;1.47;67.62;99876.66;4172305;28;20525;-77
2022/12/10 08:38:25;;;;;;;20.17;13.45;;;;;;;1.46;67.82;99874.03;4169601;28;20068;-77
2022/12/10 08:40:28;;;;;;;20.17;13.15;;;;;;;1.52;67.97;99880.31;4170851;28;20115;-77
2022/12/10 08:42:30;;;;;;;21.73;13.93;;;;;;;1.50;68.07;99881.03;4168666;28;20080;-77
2022/12/10 08:44:33;;;;;;;18.77;13.27;;;;;;;1.63;68.07;99883.28;4166900;28;20049;-77
2022/12/10 08:46:38;;;;;;;20.20;12.82;;;;;;;1.71;67.16;99887.06;4166500;28;20099;-77
2022/12/10 08:48:41;;;;;;;24.67;14.35;;;;;;;1.67;67.18;99887.75;4167363;28;20518;-76
2022/12/10 08:50:45;;;;;;;23.98;15.18;;;;;;;1.68;67.10;99886.94;4164832;28;20048;-79
2022/12/10 08:52:48;;;;;;;21.43;13.97;;;;;;;1.69;67.37;99890.34;4181806;28;20045;-78
2022/12/10 08:54:51;;;;;;;23.05;14.20;;;;;;;1.72;67.29;99893.94;4151188;28;20136;-77
2022/12/10 08:56:54;;;;;;;19.85;13.60;;;;;;;1.68;67.64;99889.50;4167629;28;20037;-78
2022/12/10 08:58:57;;;;;;;21.65;13.65;;;;;;;1.76;67.21;99892.34;4169579;28;20060;-78
2022/12/10 09:01:01;;;;;;;21.13;13.63;;;;;;;1.89;65.91;99896.28;4166712;28;20049;-77
2022/12/10 09:03:05;;;;;;;18.98;13.70;;;;;;;1.77;66.13;99890.66;4172228;28;20041;-77
2022/12/10 09:05:09;;;;;;;28.95;15.32;;;;;;;1.72;67.26;99893.94;4168514;28;20480;-77
2022/12/10 09:07:11;;;;;;;26.60;13.63;;;;;;;1.98;66.30;99888.97;4170075;28;20048;-77
2022/12/10 09:09:15;;;;;;;19.67;13.75;;;;;;;1.85;67.08;99884.16;4168372;28;20073;-77
2022/12/10 09:11:21;;;;;;;22.27;13.57;;;;;;;1.97;66.17;99883.78;4167779;28;20049;-77
2022/12/10 09:13:26;;;;;;;21.35;13.20;;;;;;;1.92;66.42;99888.72;4168293;28;20048;-76
2022/12/10 09:15:29;;;;;;;23.75;14.50;;;;;;;1.92;66.28;99891.28;4152011;28;20078;-77
2022/12/10 09:17:32;;;;;;;21.20;13.18;;;;;;;1.88;66.62;99899.66;4166605;28;20045;-77
2022/12/10 09:19:37;;;;;;;23.05;13.50;;;;;;;1.98;66.19;99896.66;4168379;28;20052;-78
2022/12/10 09:21:40;;;;;;;20.15;14.07;;;;;;;1.99;66.37;99898.41;4168470;28;20408;-77
2022/12/10 09:23:44;;;;;;;19.33;13.40;;;;;;;1.95;66.47;99898.22;4167846;28;20096;-77
2022/12/10 09:25:47;;;;;;;20.58;13.98;;;;;;;2.11;65.90;99902.28;4170088;28;20045;-78
2022/12/10 09:27:50;;;;;;;20.67;14.68;;;;;;;2.01;65.92;99904.47;4169941;28;20041;-77
2022/12/10 09:29:53;;;;;;;20.08;12.93;;;;;;;1.90;66.55;99904.03;4170056;28;20123;-77
2022/12/10 09:31:56;;;;;;;23.98;14.80;;;;;;;1.84;67.17;99903.81;4168982;28;20041;-77
2022/12/10 09:33:59;;;;;;;22.35;14.23;;;;;;;2.00;66.71;99912.97;4172768;28;20051;-78
2022/12/10 09:36:05;;;;;;;20.33;14.02;;;;;;;2.13;66.36;99910.88;4168756;28;20105;-78
2022/12/10 09:38:08;;;;;;;18.98;12.32;;;;;;;2.13;65.50;99911.75;4166431;28;20519;-78
2022/12/10 09:40:16;;;;;;;17.77;12.10;;;;;;;1.86;66.43;99907.28;4169483;28;20049;-78
2022/12/10 09:42:33;;;;;;;19.23;13.02;;;;;;;2.01;66.06;99907.03;4153733;28;20528;-77
2022/12/10 09:44:47;;;;;;;20.50;12.80;;;;;;;2.07;66.12;99914.09;4171508;28;20053;-80
2022/12/10 09:46:55;;;;;;;17.88;12.77;;;;;;;1.97;66.15;99901.72;4171168;28;20047;-77
2022/12/10 09:49:06;;;;;;;22.25;13.95;;;;;;;2.08;66.31;99909.00;4171510;28;20084;-77
2022/12/10 09:51:17;;;;;;;21.17;14.02;;;;;;;2.06;66.34;99913.22;4173622;28;20037;-78
2022/12/10 09:53:21;;;;;;;19.00;12.18;;;;;;;2.27;64.95;99909.75;4167737;28;20037;-77
2022/12/10 09:55:32;;;;;;;21.88;12.60;;;;;;;2.22;65.72;99916.38;4169196;28;20057;-77